sensor_id;sensor_type;location;lat;lon;timestamp;P1;durP1;ratioP1;P2;durP2;ratioP2
38023;SDS011;23834;48.080;11.682;2023-03-14T00:01:45;1.60;;;1.50;;
38023;SDS011;23834;48.080;11.682;2023-03-14T00:04:10;1.53;;;1.43;;
38023;SDS011;23834;48.080;11.682;2023-03-14T00:06:35;1.40;;;1.30;;
38023;SDS011;23834;48.080;11.682;2023-03-14T00:09:01;1.97;;;1.83;;
38023;SDS011;23834;48.080;11.682;2023-03-14T00:11:26;2.20;;;1.40;;
38023;SDS011;23834;48.080;11.682;2023-03-14T00:13:51;1.53;;;1.43;;
38023;SDS011;23834;48.080;11.682;2023-03-14T00:16:17;1.47;;;1.30;;
38023;SDS011;23834;48.080;11.682;2023-03-14T00:18:42;2.43;;;1.50;;
38023;SDS011;23834;48.080;11.682;2023-03-14T00:21:08;1.30;;;1.20;;
38023;SDS011;23834;48.080;11.682;2023-03-14T00:23:34;1.37;;;1.27;;
38023;SDS011;23834;48.080;11.682;2023-03-14T00:26:01;2.33;;;1.60;;
38023;SDS011;23834;48.080;11.682;2023-03-14T00:28:26;1.60;;;1.30;;
38023;SDS011;23834;48.080;11.682;2023-03-14T00:30:52;1.33;;;1.10;;
38023;SDS011;23834;48.080;11.682;2023-03-14T00:33:17;2.50;;;1.60;;
38023;SDS011;23834;48.080;11.682;2023-03-14T00:35:42;1.30;;;1.20;;
38023;SDS011;23834;48.080;11.682;2023-03-14T00:38:07;1.70;;;1.60;;
38023;SDS011;23834;48.080;11.682;2023-03-14T00:40:32;1.00;;;1.00;;
38023;SDS011;23834;48.080;11.682;2023-03-14T00:42:57;1.40;;;1.30;;
38023;SDS011;23834;48.080;11.682;2023-03-14T00:45:23;1.40;;;1.30;;
38023;SDS011;23834;48.080;11.682;2023-03-14T00:47:48;1.50;;;1.40;;
38023;SDS011;23834;48.080;11.682;2023-03-14T00:50:13;1.20;;;1.10;;
38023;SDS011;23834;48.080;11.682;2023-03-14T00:52:38;1.33;;;1.23;;
38023;SDS011;23834;48.080;11.682;2023-03-14T00:55:04;1.33;;;1.23;;
38023;SDS011;23834;48.080;11.682;2023-03-14T00:57:29;1.23;;;1.13;;
38023;SDS011;23834;48.080;11.682;2023-03-14T00:59:54;1.23;;;1.20;;
38023;SDS011;23834;48.080;11.682;2023-03-14T01:02:19;1.67;;;1.40;;
38023;SDS011;23834;48.080;11.682;2023-03-14T01:04:47;1.50;;;1.27;;
38023;SDS011;23834;48.080;11.682;2023-03-14T01:07:12;1.40;;;1.30;;
38023;SDS011;23834;48.080;11.682;2023-03-14T01:09:37;1.30;;;1.20;;
38023;SDS011;23834;48.080;11.682;2023-03-14T01:12:02;1.30;;;1.20;;
38023;SDS011;23834;48.080;11.682;2023-03-14T01:14:27;2.20;;;1.13;;
38023;SDS011;23834;48.080;11.682;2023-03-14T01:16:53;1.00;;;1.00;;
38023;SDS011;23834;48.080;11.682;2023-03-14T01:19:18;1.37;;;1.27;;
38023;SDS011;23834;48.080;11.682;2023-03-14T01:21:43;1.23;;;1.20;;
38023;SDS011;23834;48.080;11.682;2023-03-14T01:24:10;1.20;;;1.10;;
38023;SDS011;23834;48.080;11.682;2023-03-14T01:26:35;1.40;;;1.30;;
38023;SDS011;23834;48.080;11.682;2023-03-14T01:29:01;0.87;;;0.87;;
38023;SDS011;23834;48.080;11.682;2023-03-14T01:31:26;1.67;;;1.30;;
38023;SDS011;23834;48.080;11.682;2023-03-14T01:33:52;1.10;;;1.00;;
38023;SDS011;23834;48.080;11.682;2023-03-14T01:36:17;1.07;;;1.07;;
38023;SDS011;23834;48.080;11.682;2023-03-14T01:38:42;0.87;;;0.87;;
38023;SDS011;23834;48.080;11.682;2023-03-14T01:41:09;1.07;;;0.97;;
38023;SDS011;23834;48.080;11.682;2023-03-14T01:43:36;1.43;;;1.10;;
38023;SDS011;23834;48.080;11.682;2023-03-14T01:48:28;1.20;;;1.10;;
38023;SDS011;23834;48.080;11.682;2023-03-14T01:50:53;0.90;;;0.90;;
38023;SDS011;23834;48.080;11.682;2023-03-14T01:53:19;1.00;;;1.00;;
38023;SDS011;23834;48.080;11.682;2023-03-14T01:55:46;1.60;;;0.90;;
38023;SDS011;23834;48.080;11.682;2023-03-14T01:58:11;1.03;;;0.90;;
38023;SDS011;23834;48.080;11.682;2023-03-14T02:00:37;1.20;;;1.10;;
38023;SDS011;23834;48.080;11.682;2023-03-14T02:03:05;1.20;;;1.10;;
38023;SDS011;23834;48.080;11.682;2023-03-14T02:05:32;1.20;;;1.10;;
38023;SDS011;23834;48.080;11.682;2023-03-14T02:08:00;0.90;;;0.90;;
38023;SDS011;23834;48.080;11.682;2023-03-14T02:10:29;0.80;;;0.70;;
38023;SDS011;23834;48.080;11.682;2023-03-14T02:12:55;2.00;;;1.00;;
38023;SDS011;23834;48.080;11.682;2023-03-14T02:15:21;1.13;;;0.90;;
38023;SDS011;23834;48.080;11.682;2023-03-14T02:17:47;1.43;;;1.00;;
38023;SDS011;23834;48.080;11.682;2023-03-14T02:20:23;0.80;;;0.80;;
38023;SDS011;23834;48.080;11.682;2023-03-14T02:22:50;0.67;;;0.67;;
38023;SDS011;23834;48.080;11.682;2023-03-14T02:25:25;1.10;;;1.00;;
38023;SDS011;23834;48.080;11.682;2023-03-14T02:27:53;0.93;;;0.83;;
38023;SDS011;23834;48.080;11.682;2023-03-14T02:30:20;1.10;;;1.00;;
38023;SDS011;23834;48.080;11.682;2023-03-14T02:32:49;0.80;;;0.77;;
38023;SDS011;23834;48.080;11.682;2023-03-14T02:35:24;0.70;;;0.70;;
38023;SDS011;23834;48.080;11.682;2023-03-14T02:37:55;1.27;;;1.00;;
38023;SDS011;23834;48.080;11.682;2023-03-14T02:40:22;0.83;;;0.83;;
38023;SDS011;23834;48.080;11.682;2023-03-14T02:42:47;1.40;;;0.90;;
38023;SDS011;23834;48.080;11.682;2023-03-14T02:47:44;0.53;;;0.53;;
38023;SDS011;23834;48.080;11.682;2023-03-14T02:50:12;1.30;;;0.77;;
38023;SDS011;23834;48.080;11.682;2023-03-14T02:52:38;0.80;;;0.70;;
38023;SDS011;23834;48.080;11.682;2023-03-14T02:55:03;1.10;;;1.00;;
38023;SDS011;23834;48.080;11.682;2023-03-14T02:57:29;0.80;;;0.80;;
38023;SDS011;23834;48.080;11.682;2023-03-14T02:59:54;0.70;;;0.70;;
38023;SDS011;23834;48.080;11.682;2023-03-14T03:02:22;0.70;;;0.70;;
38023;SDS011;23834;48.080;11.682;2023-03-14T03:04:47;1.00;;;0.90;;
38023;SDS011;23834;48.080;11.682;2023-03-14T03:07:13;0.60;;;0.60;;
38023;SDS011;23834;48.080;11.682;2023-03-14T03:09:38;0.80;;;0.80;;
38023;SDS011;23834;48.080;11.682;2023-03-14T03:12:03;0.93;;;0.83;;
38023;SDS011;23834;48.080;11.682;2023-03-14T03:14:28;0.70;;;0.70;;
38023;SDS011;23834;48.080;11.682;2023-03-14T03:16:53;0.87;;;0.50;;
38023;SDS011;23834;48.080;11.682;2023-03-14T03:19:19;1.60;;;0.73;;
38023;SDS011;23834;48.080;11.682;2023-03-14T03:21:44;0.50;;;0.50;;
38023;SDS011;23834;48.080;11.682;2023-03-14T03:24:09;0.80;;;0.80;;
38023;SDS011;23834;48.080;11.682;2023-03-14T03:26:35;0.70;;;0.60;;
38023;SDS011;23834;48.080;11.682;2023-03-14T03:29:00;1.20;;;0.70;;
38023;SDS011;23834;48.080;11.682;2023-03-14T03:31:26;0.90;;;0.80;;
38023;SDS011;23834;48.080;11.682;2023-03-14T03:33:51;0.80;;;0.57;;
38023;SDS011;23834;48.080;11.682;2023-03-14T03:36:20;0.50;;;0.50;;
38023;SDS011;23834;48.080;11.682;2023-03-14T03:38:45;0.60;;;0.60;;
38023;SDS011;23834;48.080;11.682;2023-03-14T03:41:10;0.53;;;0.53;;
38023;SDS011;23834;48.080;11.682;2023-03-14T03:43:36;0.90;;;0.70;;
38023;SDS011;23834;48.080;11.682;2023-03-14T03:46:04;0.80;;;0.60;;
38023;SDS011;23834;48.080;11.682;2023-03-14T03:48:30;0.53;;;0.53;;
38023;SDS011;23834;48.080;11.682;2023-03-14T03:50:55;0.70;;;0.50;;
38023;SDS011;23834;48.080;11.682;2023-03-14T03:53:20;0.63;;;0.63;;
38023;SDS011;23834;48.080;11.682;2023-03-14T03:55:45;0.60;;;0.60;;
38023;SDS011;23834;48.080;11.682;2023-03-14T03:58:11;1.00;;;0.60;;
38023;SDS011;23834;48.080;11.682;2023-03-14T04:00:36;0.60;;;0.60;;
38023;SDS011;23834;48.080;11.682;2023-03-14T04:03:01;0.80;;;0.47;;
38023;SDS011;23834;48.080;11.682;2023-03-14T04:05:26;0.70;;;0.60;;
38023;SDS011;23834;48.080;11.682;2023-03-14T04:07:51;0.60;;;0.60;;
38023;SDS011;23834;48.080;11.682;2023-03-14T04:10:17;0.53;;;0.53;;
38023;SDS011;23834;48.080;11.682;2023-03-14T04:12:42;0.40;;;0.40;;
38023;SDS011;23834;48.080;11.682;2023-03-14T04:15:07;0.50;;;0.40;;
38023;SDS011;23834;48.080;11.682;2023-03-14T04:17:32;0.57;;;0.57;;
38023;SDS011;23834;48.080;11.682;2023-03-14T04:19:58;0.70;;;0.50;;
38023;SDS011;23834;48.080;11.682;2023-03-14T04:22:23;0.63;;;0.60;;
38023;SDS011;23834;48.080;11.682;2023-03-14T04:24:48;0.70;;;0.60;;
38023;SDS011;23834;48.080;11.682;2023-03-14T04:27:14;0.43;;;0.40;;
38023;SDS011;23834;48.080;11.682;2023-03-14T04:29:40;0.70;;;0.50;;
38023;SDS011;23834;48.080;11.682;2023-03-14T04:32:05;0.50;;;0.40;;
38023;SDS011;23834;48.080;11.682;2023-03-14T04:34:30;0.50;;;0.40;;
38023;SDS011;23834;48.080;11.682;2023-03-14T04:36:55;0.67;;;0.50;;
38023;SDS011;23834;48.080;11.682;2023-03-14T04:39:20;0.50;;;0.40;;
38023;SDS011;23834;48.080;11.682;2023-03-14T04:41:46;0.50;;;0.40;;
38023;SDS011;23834;48.080;11.682;2023-03-14T04:44:11;0.50;;;0.47;;
38023;SDS011;23834;48.080;11.682;2023-03-14T04:46:36;0.60;;;0.60;;
38023;SDS011;23834;48.080;11.682;2023-03-14T04:49:01;0.50;;;0.50;;
38023;SDS011;23834;48.080;11.682;2023-03-14T04:51:26;0.50;;;0.40;;
38023;SDS011;23834;48.080;11.682;2023-03-14T04:53:52;1.33;;;0.40;;
38023;SDS011;23834;48.080;11.682;2023-03-14T04:56:17;0.70;;;0.50;;
38023;SDS011;23834;48.080;11.682;2023-03-14T04:58:42;0.50;;;0.40;;
38023;SDS011;23834;48.080;11.682;2023-03-14T05:01:08;1.63;;;0.50;;
38023;SDS011;23834;48.080;11.682;2023-03-14T05:03:34;0.60;;;0.40;;
38023;SDS011;23834;48.080;11.682;2023-03-14T05:06:01;0.50;;;0.40;;
38023;SDS011;23834;48.080;11.682;2023-03-14T05:08:26;1.23;;;0.50;;
38023;SDS011;23834;48.080;11.682;2023-03-14T05:10:52;1.23;;;0.50;;
38023;SDS011;23834;48.080;11.682;2023-03-14T05:13:18;0.47;;;0.40;;
38023;SDS011;23834;48.080;11.682;2023-03-14T05:15:43;0.50;;;0.37;;
38023;SDS011;23834;48.080;11.682;2023-03-14T05:18:08;0.50;;;0.40;;
38023;SDS011;23834;48.080;11.682;2023-03-14T05:20:33;0.50;;;0.43;;
38023;SDS011;23834;48.080;11.682;2023-03-14T05:22:58;0.60;;;0.43;;
38023;SDS011;23834;48.080;11.682;2023-03-14T05:25:24;0.50;;;0.40;;
38023;SDS011;23834;48.080;11.682;2023-03-14T05:27:49;0.67;;;0.50;;
38023;SDS011;23834;48.080;11.682;2023-03-14T05:30:14;1.03;;;0.40;;
38023;SDS011;23834;48.080;11.682;2023-03-14T05:32:39;0.70;;;0.50;;
38023;SDS011;23834;48.080;11.682;2023-03-14T05:35:04;0.50;;;0.40;;
38023;SDS011;23834;48.080;11.682;2023-03-14T05:37:30;0.50;;;0.40;;
38023;SDS011;23834;48.080;11.682;2023-03-14T05:39:55;0.57;;;0.50;;
38023;SDS011;23834;48.080;11.682;2023-03-14T05:42:20;0.67;;;0.40;;
38023;SDS011;23834;48.080;11.682;2023-03-14T05:44:45;0.50;;;0.30;;
38023;SDS011;23834;48.080;11.682;2023-03-14T05:47:10;0.50;;;0.40;;
38023;SDS011;23834;48.080;11.682;2023-03-14T05:49:36;0.50;;;0.47;;
38023;SDS011;23834;48.080;11.682;2023-03-14T05:52:01;0.50;;;0.40;;
38023;SDS011;23834;48.080;11.682;2023-03-14T05:54:26;0.47;;;0.33;;
38023;SDS011;23834;48.080;11.682;2023-03-14T05:56:51;0.50;;;0.40;;
38023;SDS011;23834;48.080;11.682;2023-03-14T05:59:17;0.50;;;0.40;;
38023;SDS011;23834;48.080;11.682;2023-03-14T06:01:42;0.50;;;0.47;;
38023;SDS011;23834;48.080;11.682;2023-03-14T06:04:07;0.80;;;0.40;;
38023;SDS011;23834;48.080;11.682;2023-03-14T06:06:33;1.13;;;0.33;;
38023;SDS011;23834;48.080;11.682;2023-03-14T06:08:58;0.50;;;0.40;;
38023;SDS011;23834;48.080;11.682;2023-03-14T06:11:23;0.63;;;0.40;;
38023;SDS011;23834;48.080;11.682;2023-03-14T06:13:48;0.50;;;0.47;;
38023;SDS011;23834;48.080;11.682;2023-03-14T06:16:13;0.50;;;0.40;;
38023;SDS011;23834;48.080;11.682;2023-03-14T06:18:39;0.43;;;0.40;;
38023;SDS011;23834;48.080;11.682;2023-03-14T06:21:05;1.07;;;0.73;;
38023;SDS011;23834;48.080;11.682;2023-03-14T06:23:31;0.47;;;0.40;;
38023;SDS011;23834;48.080;11.682;2023-03-14T06:25:56;0.90;;;0.40;;
38023;SDS011;23834;48.080;11.682;2023-03-14T06:28:21;0.40;;;0.30;;
38023;SDS011;23834;48.080;11.682;2023-03-14T06:30:47;0.50;;;0.37;;
38023;SDS011;23834;48.080;11.682;2023-03-14T06:33:12;0.50;;;0.40;;
38023;SDS011;23834;48.080;11.682;2023-03-14T06:35:37;1.07;;;0.60;;
38023;SDS011;23834;48.080;11.682;2023-03-14T06:38:02;0.57;;;0.40;;
38023;SDS011;23834;48.080;11.682;2023-03-14T06:40:28;0.70;;;0.40;;
38023;SDS011;23834;48.080;11.682;2023-03-14T06:42:53;0.60;;;0.40;;
38023;SDS011;23834;48.080;11.682;2023-03-14T06:45:18;0.50;;;0.43;;
38023;SDS011;23834;48.080;11.682;2023-03-14T06:47:43;0.50;;;0.30;;
38023;SDS011;23834;48.080;11.682;2023-03-14T06:50:09;0.97;;;0.40;;
38023;SDS011;23834;48.080;11.682;2023-03-14T06:52:34;0.50;;;0.50;;
38023;SDS011;23834;48.080;11.682;2023-03-14T06:54:59;2.40;;;0.40;;
38023;SDS011;23834;48.080;11.682;2023-03-14T06:57:24;0.40;;;0.30;;
38023;SDS011;23834;48.080;11.682;2023-03-14T06:59:50;1.10;;;0.40;;
38023;SDS011;23834;48.080;11.682;2023-03-14T07:02:15;1.00;;;0.50;;
38023;SDS011;23834;48.080;11.682;2023-03-14T07:04:40;0.50;;;0.50;;
38023;SDS011;23834;48.080;11.682;2023-03-14T07:07:05;0.93;;;0.40;;
38023;SDS011;23834;48.080;11.682;2023-03-14T07:09:31;0.50;;;0.40;;
38023;SDS011;23834;48.080;11.682;2023-03-14T07:11:56;0.67;;;0.40;;
38023;SDS011;23834;48.080;11.682;2023-03-14T07:14:21;0.50;;;0.37;;
38023;SDS011;23834;48.080;11.682;2023-03-14T07:16:46;0.50;;;0.50;;
38023;SDS011;23834;48.080;11.682;2023-03-14T07:19:11;0.70;;;0.50;;
38023;SDS011;23834;48.080;11.682;2023-03-14T07:21:36;0.50;;;0.50;;
38023;SDS011;23834;48.080;11.682;2023-03-14T07:24:02;0.50;;;0.40;;
38023;SDS011;23834;48.080;11.682;2023-03-14T07:26:27;0.50;;;0.40;;
38023;SDS011;23834;48.080;11.682;2023-03-14T07:28:53;0.50;;;0.50;;
38023;SDS011;23834;48.080;11.682;2023-03-14T07:31:18;0.50;;;0.37;;
38023;SDS011;23834;48.080;11.682;2023-03-14T07:33:43;2.23;;;0.40;;
38023;SDS011;23834;48.080;11.682;2023-03-14T07:36:09;0.60;;;0.50;;
38023;SDS011;23834;48.080;11.682;2023-03-14T07:38:34;0.50;;;0.50;;
38023;SDS011;23834;48.080;11.682;2023-03-14T07:41:03;0.67;;;0.47;;
38023;SDS011;23834;48.080;11.682;2023-03-14T07:43:29;0.50;;;0.40;;
38023;SDS011;23834;48.080;11.682;2023-03-14T07:45:54;0.60;;;0.50;;
38023;SDS011;23834;48.080;11.682;2023-03-14T07:48:19;0.50;;;0.50;;
38023;SDS011;23834;48.080;11.682;2023-03-14T07:50:48;0.40;;;0.40;;
38023;SDS011;23834;48.080;11.682;2023-03-14T07:53:13;0.53;;;0.50;;
38023;SDS011;23834;48.080;11.682;2023-03-14T07:55:39;1.77;;;0.40;;
38023;SDS011;23834;48.080;11.682;2023-03-14T07:58:05;1.10;;;0.60;;
38023;SDS011;23834;48.080;11.682;2023-03-14T08:00:30;0.70;;;0.50;;
38023;SDS011;23834;48.080;11.682;2023-03-14T08:02:55;2.10;;;0.40;;
38023;SDS011;23834;48.080;11.682;2023-03-14T08:05:20;0.70;;;0.50;;
38023;SDS011;23834;48.080;11.682;2023-03-14T08:07:45;0.90;;;0.50;;
38023;SDS011;23834;48.080;11.682;2023-03-14T08:10:10;0.47;;;0.33;;
38023;SDS011;23834;48.080;11.682;2023-03-14T08:12:38;0.77;;;0.50;;
38023;SDS011;23834;48.080;11.682;2023-03-14T08:15:03;0.50;;;0.50;;
38023;SDS011;23834;48.080;11.682;2023-03-14T08:17:28;0.40;;;0.33;;
38023;SDS011;23834;48.080;11.682;2023-03-14T08:19:53;0.50;;;0.40;;
38023;SDS011;23834;48.080;11.682;2023-03-14T08:22:19;0.50;;;0.47;;
38023;SDS011;23834;48.080;11.682;2023-03-14T08:24:44;0.50;;;0.37;;
38023;SDS011;23834;48.080;11.682;2023-03-14T08:27:09;0.50;;;0.40;;
38023;SDS011;23834;48.080;11.682;2023-03-14T08:29:34;0.50;;;0.50;;
38023;SDS011;23834;48.080;11.682;2023-03-14T08:31:59;0.70;;;0.60;;
38023;SDS011;23834;48.080;11.682;2023-03-14T08:34:24;0.50;;;0.40;;
38023;SDS011;23834;48.080;11.682;2023-03-14T08:36:49;0.60;;;0.50;;
38023;SDS011;23834;48.080;11.682;2023-03-14T08:39:15;0.60;;;0.50;;
38023;SDS011;23834;48.080;11.682;2023-03-14T08:41:40;0.40;;;0.40;;
38023;SDS011;23834;48.080;11.682;2023-03-14T08:44:07;0.67;;;0.43;;
38023;SDS011;23834;48.080;11.682;2023-03-14T08:46:33;1.37;;;0.50;;
38023;SDS011;23834;48.080;11.682;2023-03-14T08:48:58;0.40;;;0.33;;
38023;SDS011;23834;48.080;11.682;2023-03-14T08:51:24;0.50;;;0.40;;
38023;SDS011;23834;48.080;11.682;2023-03-14T08:53:49;0.40;;;0.30;;
38023;SDS011;23834;48.080;11.682;2023-03-14T08:56:15;0.77;;;0.40;;
38023;SDS011;23834;48.080;11.682;2023-03-14T08:58:40;0.60;;;0.40;;
38023;SDS011;23834;48.080;11.682;2023-03-14T09:01:07;0.40;;;0.30;;
38023;SDS011;23834;48.080;11.682;2023-03-14T09:03:33;1.03;;;0.50;;
38023;SDS011;23834;48.080;11.682;2023-03-14T09:06:04;0.50;;;0.30;;
38023;SDS011;23834;48.080;11.682;2023-03-14T09:08:30;0.60;;;0.40;;
38023;SDS011;23834;48.080;11.682;2023-03-14T09:10:57;0.50;;;0.40;;
38023;SDS011;23834;48.080;11.682;2023-03-14T09:13:22;0.50;;;0.50;;
38023;SDS011;23834;48.080;11.682;2023-03-14T09:15:54;0.60;;;0.40;;
38023;SDS011;23834;48.080;11.682;2023-03-14T09:18:20;0.40;;;0.40;;
38023;SDS011;23834;48.080;11.682;2023-03-14T09:20:45;0.60;;;0.40;;
38023;SDS011;23834;48.080;11.682;2023-03-14T09:23:10;0.60;;;0.40;;
38023;SDS011;23834;48.080;11.682;2023-03-14T09:25:35;0.67;;;0.47;;
38023;SDS011;23834;48.080;11.682;2023-03-14T09:28:01;0.40;;;0.37;;
38023;SDS011;23834;48.080;11.682;2023-03-14T09:30:26;0.40;;;0.30;;
38023;SDS011;23834;48.080;11.682;2023-03-14T09:32:51;0.50;;;0.40;;
38023;SDS011;23834;48.080;11.682;2023-03-14T09:35:16;0.50;;;0.30;;
38023;SDS011;23834;48.080;11.682;2023-03-14T09:37:42;0.50;;;0.30;;
38023;SDS011;23834;48.080;11.682;2023-03-14T09:40:11;0.50;;;0.33;;
38023;SDS011;23834;48.080;11.682;2023-03-14T09:42:37;0.40;;;0.30;;
38023;SDS011;23834;48.080;11.682;2023-03-14T09:45:11;0.40;;;0.33;;
38023;SDS011;23834;48.080;11.682;2023-03-14T09:47:37;0.50;;;0.30;;
38023;SDS011;23834;48.080;11.682;2023-03-14T09:50:05;0.60;;;0.40;;
38023;SDS011;23834;48.080;11.682;2023-03-14T09:52:35;1.07;;;0.40;;
38023;SDS011;23834;48.080;11.682;2023-03-14T09:55:02;0.40;;;0.30;;
38023;SDS011;23834;48.080;11.682;2023-03-14T09:57:29;0.90;;;0.30;;
38023;SDS011;23834;48.080;11.682;2023-03-14T09:59:58;0.40;;;0.40;;
38023;SDS011;23834;48.080;11.682;2023-03-14T10:02:28;0.50;;;0.40;;
38023;SDS011;23834;48.080;11.682;2023-03-14T10:04:56;0.50;;;0.37;;
38023;SDS011;23834;48.080;11.682;2023-03-14T10:07:23;0.60;;;0.50;;
38023;SDS011;23834;48.080;11.682;2023-03-14T10:09:50;0.70;;;0.40;;
38023;SDS011;23834;48.080;11.682;2023-03-14T10:12:16;0.70;;;0.60;;
38023;SDS011;23834;48.080;11.682;2023-03-14T10:14:46;0.63;;;0.50;;
38023;SDS011;23834;48.080;11.682;2023-03-14T10:17:12;0.50;;;0.40;;
38023;SDS011;23834;48.080;11.682;2023-03-14T10:19:59;0.50;;;0.40;;
38023;SDS011;23834;48.080;11.682;2023-03-14T10:22:24;0.90;;;0.40;;
38023;SDS011;23834;48.080;11.682;2023-03-14T10:25:02;0.63;;;0.50;;
38023;SDS011;23834;48.080;11.682;2023-03-14T10:27:29;0.50;;;0.40;;
38023;SDS011;23834;48.080;11.682;2023-03-14T10:29:56;0.60;;;0.57;;
38023;SDS011;23834;48.080;11.682;2023-03-14T10:32:22;0.40;;;0.33;;
38023;SDS011;23834;48.080;11.682;2023-03-14T10:35:11;0.40;;;0.33;;
38023;SDS011;23834;48.080;11.682;2023-03-14T10:37:53;0.50;;;0.50;;
38023;SDS011;23834;48.080;11.682;2023-03-14T10:40:22;0.50;;;0.40;;
38023;SDS011;23834;48.080;11.682;2023-03-14T10:42:49;0.50;;;0.50;;
38023;SDS011;23834;48.080;11.682;2023-03-14T10:45:29;0.50;;;0.50;;
38023;SDS011;23834;48.080;11.682;2023-03-14T10:47:56;0.60;;;0.40;;
38023;SDS011;23834;48.080;11.682;2023-03-14T10:52:48;0.40;;;0.30;;
38023;SDS011;23834;48.080;11.682;2023-03-14T10:55:14;0.50;;;0.40;;
38023;SDS011;23834;48.080;11.682;2023-03-14T10:57:42;0.40;;;0.40;;
38023;SDS011;23834;48.080;11.682;2023-03-14T11:00:18;0.90;;;0.50;;
38023;SDS011;23834;48.080;11.682;2023-03-14T11:08:11;0.50;;;0.40;;
38023;SDS011;23834;48.080;11.682;2023-03-14T11:10:39;0.50;;;0.50;;
38023;SDS011;23834;48.080;11.682;2023-03-14T11:13:30;1.00;;;0.50;;
38023;SDS011;23834;48.080;11.682;2023-03-14T11:15:57;0.60;;;0.50;;
38023;SDS011;23834;48.080;11.682;2023-03-14T11:26:51;0.50;;;0.50;;
38023;SDS011;23834;48.080;11.682;2023-03-14T11:28:49;0.53;;;0.40;;
38023;SDS011;23834;48.080;11.682;2023-03-14T11:31:28;1.47;;;0.57;;
38023;SDS011;23834;48.080;11.682;2023-03-14T11:33:56;0.50;;;0.37;;
38023;SDS011;23834;48.080;11.682;2023-03-14T11:37:12;0.50;;;0.40;;
38023;SDS011;23834;48.080;11.682;2023-03-14T11:39:16;0.50;;;0.40;;
38023;SDS011;23834;48.080;11.682;2023-03-14T11:41:43;0.60;;;0.60;;
38023;SDS011;23834;48.080;11.682;2023-03-14T11:49:27;0.40;;;0.40;;
38023;SDS011;23834;48.080;11.682;2023-03-14T11:52:01;0.50;;;0.40;;
38023;SDS011;23834;48.080;11.682;2023-03-14T11:57:03;0.60;;;0.43;;
38023;SDS011;23834;48.080;11.682;2023-03-14T12:02:18;0.50;;;0.40;;
38023;SDS011;23834;48.080;11.682;2023-03-14T12:07:19;0.77;;;0.63;;
38023;SDS011;23834;48.080;11.682;2023-03-14T12:09:47;0.60;;;0.60;;
38023;SDS011;23834;48.080;11.682;2023-03-14T12:12:14;0.60;;;0.57;;
38023;SDS011;23834;48.080;11.682;2023-03-14T12:14:45;1.00;;;0.80;;
38023;SDS011;23834;48.080;11.682;2023-03-14T12:19:42;0.87;;;0.87;;
38023;SDS011;23834;48.080;11.682;2023-03-14T12:22:12;0.80;;;0.60;;
38023;SDS011;23834;48.080;11.682;2023-03-14T12:24:41;0.70;;;0.60;;
38023;SDS011;23834;48.080;11.682;2023-03-14T12:27:10;0.90;;;0.60;;
38023;SDS011;23834;48.080;11.682;2023-03-14T12:29:57;0.63;;;0.63;;
38023;SDS011;23834;48.080;11.682;2023-03-14T12:32:23;1.43;;;0.90;;
38023;SDS011;23834;48.080;11.682;2023-03-14T12:34:48;0.60;;;0.57;;
38023;SDS011;23834;48.080;11.682;2023-03-14T12:42:07;1.57;;;0.63;;
38023;SDS011;23834;48.080;11.682;2023-03-14T12:44:38;0.90;;;0.50;;
38023;SDS011;23834;48.080;11.682;2023-03-14T12:49:44;1.70;;;0.80;;
38023;SDS011;23834;48.080;11.682;2023-03-14T12:52:15;1.17;;;0.60;;
38023;SDS011;23834;48.080;11.682;2023-03-14T13:00:18;1.27;;;0.50;;
38023;SDS011;23834;48.080;11.682;2023-03-14T13:02:44;0.80;;;0.50;;
38023;SDS011;23834;48.080;11.682;2023-03-14T13:10:42;0.60;;;0.50;;
38023;SDS011;23834;48.080;11.682;2023-03-14T13:15:30;2.00;;;0.77;;
38023;SDS011;23834;48.080;11.682;2023-03-14T13:17:59;0.60;;;0.50;;
38023;SDS011;23834;48.080;11.682;2023-03-14T13:20:33;0.60;;;0.53;;
38023;SDS011;23834;48.080;11.682;2023-03-14T13:22:59;0.83;;;0.47;;
38023;SDS011;23834;48.080;11.682;2023-03-14T13:25:24;0.60;;;0.60;;
38023;SDS011;23834;48.080;11.682;2023-03-14T13:27:54;0.50;;;0.40;;
38023;SDS011;23834;48.080;11.682;2023-03-14T13:30:29;0.97;;;0.70;;
38023;SDS011;23834;48.080;11.682;2023-03-14T13:33:02;1.70;;;0.90;;
38023;SDS011;23834;48.080;11.682;2023-03-14T13:35:29;0.60;;;0.53;;
38023;SDS011;23834;48.080;11.682;2023-03-14T13:37:55;1.10;;;0.67;;
38023;SDS011;23834;48.080;11.682;2023-03-14T13:40:24;0.67;;;0.40;;
38023;SDS011;23834;48.080;11.682;2023-03-14T13:42:58;1.23;;;0.53;;
38023;SDS011;23834;48.080;11.682;2023-03-14T13:45:24;0.83;;;0.70;;
38023;SDS011;23834;48.080;11.682;2023-03-14T13:47:51;1.33;;;0.50;;
38023;SDS011;23834;48.080;11.682;2023-03-14T13:50:16;0.73;;;0.60;;
38023;SDS011;23834;48.080;11.682;2023-03-14T13:52:42;1.13;;;0.60;;
38023;SDS011;23834;48.080;11.682;2023-03-14T13:55:14;0.60;;;0.60;;
38023;SDS011;23834;48.080;11.682;2023-03-14T13:57:43;0.93;;;0.47;;
38023;SDS011;23834;48.080;11.682;2023-03-14T14:00:20;0.90;;;0.50;;
38023;SDS011;23834;48.080;11.682;2023-03-14T14:02:45;1.63;;;0.70;;
38023;SDS011;23834;48.080;11.682;2023-03-14T14:05:11;0.73;;;0.60;;
38023;SDS011;23834;48.080;11.682;2023-03-14T14:07:36;0.80;;;0.70;;
38023;SDS011;23834;48.080;11.682;2023-03-14T14:10:03;0.70;;;0.40;;
38023;SDS011;23834;48.080;11.682;2023-03-14T14:12:30;1.27;;;0.57;;
38023;SDS011;23834;48.080;11.682;2023-03-14T14:17:29;1.13;;;0.60;;
38023;SDS011;23834;48.080;11.682;2023-03-14T14:19:56;0.87;;;0.67;;
38023;SDS011;23834;48.080;11.682;2023-03-14T14:22:22;0.60;;;0.40;;
38023;SDS011;23834;48.080;11.682;2023-03-14T14:24:47;0.63;;;0.60;;
38023;SDS011;23834;48.080;11.682;2023-03-14T14:27:14;0.83;;;0.70;;
38023;SDS011;23834;48.080;11.682;2023-03-14T14:29:40;0.50;;;0.40;;
38023;SDS011;23834;48.080;11.682;2023-03-14T14:34:47;1.00;;;0.50;;
38023;SDS011;23834;48.080;11.682;2023-03-14T14:37:21;0.70;;;0.60;;
38023;SDS011;23834;48.080;11.682;2023-03-14T14:39:47;0.50;;;0.50;;
38023;SDS011;23834;48.080;11.682;2023-03-14T14:42:16;0.50;;;0.43;;
38023;SDS011;23834;48.080;11.682;2023-03-14T14:44:41;1.03;;;0.50;;
38023;SDS011;23834;48.080;11.682;2023-03-14T14:47:12;1.77;;;0.53;;
38023;SDS011;23834;48.080;11.682;2023-03-14T14:49:37;0.47;;;0.40;;
38023;SDS011;23834;48.080;11.682;2023-03-14T14:52:04;1.07;;;0.50;;
38023;SDS011;23834;48.080;11.682;2023-03-14T14:54:51;0.60;;;0.50;;
38023;SDS011;23834;48.080;11.682;2023-03-14T14:57:20;0.50;;;0.40;;
38023;SDS011;23834;48.080;11.682;2023-03-14T14:59:47;0.60;;;0.50;;
38023;SDS011;23834;48.080;11.682;2023-03-14T15:02:23;0.70;;;0.40;;
38023;SDS011;23834;48.080;11.682;2023-03-14T15:04:49;0.80;;;0.50;;
38023;SDS011;23834;48.080;11.682;2023-03-14T15:07:14;0.70;;;0.50;;
38023;SDS011;23834;48.080;11.682;2023-03-14T15:09:41;1.10;;;0.37;;
38023;SDS011;23834;48.080;11.682;2023-03-14T15:12:07;0.57;;;0.43;;
38023;SDS011;23834;48.080;11.682;2023-03-14T15:14:32;0.87;;;0.60;;
38023;SDS011;23834;48.080;11.682;2023-03-14T15:16:57;1.53;;;0.40;;
38023;SDS011;23834;48.080;11.682;2023-03-14T15:19:23;0.40;;;0.30;;
38023;SDS011;23834;48.080;11.682;2023-03-14T15:21:49;0.60;;;0.50;;
38023;SDS011;23834;48.080;11.682;2023-03-14T15:24:14;0.40;;;0.37;;
38023;SDS011;23834;48.080;11.682;2023-03-14T15:26:39;0.67;;;0.47;;
38023;SDS011;23834;48.080;11.682;2023-03-14T15:29:05;0.60;;;0.40;;
38023;SDS011;23834;48.080;11.682;2023-03-14T15:31:33;1.23;;;0.50;;
38023;SDS011;23834;48.080;11.682;2023-03-14T15:33:59;0.70;;;0.40;;